Time;durP1;ratioP1;P1;durP2;ratioP2;P2;SDS_P1;SDS_P2;PMS_P1;PMS_P2;Temp;Humidity;BMP_temperature;BMP_pressure;BME280_temperature;BME280_humidity;BME280_pressure;Samples;Min_cycle;Max_cycle;Signal;HPM_P1;HPM_P2
2022/05/26 00:01:04;;;;;;;1.27;0.60;;;;;;;21.06;50.72;101554.19;5082757;28;20051;-60
2022/05/26 00:03:31;;;;;;;1.42;0.75;;;;;;;21.04;50.70;101550.84;5083545;28;20115;-60
2022/05/26 00:05:56;;;;;;;1.00;0.60;;;;;;;20.99;50.63;101544.25;5083831;28;20110;-61
2022/05/26 00:08:22;;;;;;;0.80;0.50;;;;;;;21.06;50.45;101553.34;5098966;28;20020;-61
2022/05/26 00:10:47;;;;;;;1.85;0.82;;;;;;;21.07;50.36;101560.44;5083711;28;20082;-61
2022/05/26 00:13:12;;;;;;;2.78;0.98;;;;;;;21.07;50.48;101563.16;5082995;28;20025;-60
2022/05/26 00:15:37;;;;;;;1.20;0.60;;;;;;;20.91;50.38;101540.50;5083351;28;20040;-60
2022/05/26 00:18:03;;;;;;;0.73;0.52;;;;;;;21.05;50.48;101571.44;5082705;28;20121;-60
2022/05/26 00:20:28;;;;;;;1.20;0.60;;;;;;;21.04;50.63;101560.81;5083744;28;20074;-60
2022/05/26 00:22:53;;;;;;;2.28;0.80;;;;;;;21.05;50.60;101560.63;5082073;28;20032;-60
2022/05/26 00:25:18;;;;;;;0.93;0.80;;;;;;;20.99;50.46;101546.94;5083551;28;20036;-60
2022/05/26 00:27:43;;;;;;;2.25;0.68;;;;;;;21.03;50.18;101562.66;5083135;28;20020;-60
2022/05/26 00:30:09;;;;;;;1.45;0.63;;;;;;;21.03;50.30;101568.06;5083337;28;20402;-60
2022/05/26 00:32:35;;;;;;;1.13;0.63;;;;;;;21.00;50.42;101564.84;5083117;28;20021;-60
2022/05/26 00:35:00;;;;;;;1.05;0.60;;;;;;;21.04;50.54;101577.03;5083449;28;20055;-60
2022/05/26 00:37:26;;;;;;;2.22;0.68;;;;;;;21.03;50.41;101578.88;5083372;28;20036;-60
2022/05/26 00:39:51;;;;;;;2.05;0.65;;;;;;;21.02;50.17;101573.63;5080596;28;20020;-61
2022/05/26 00:42:17;;;;;;;0.77;0.50;;;;;;;21.03;50.44;101567.22;5083359;28;20876;-60
2022/05/26 00:44:42;;;;;;;1.20;0.80;;;;;;;21.03;50.43;101578.88;5083450;28;20083;-60
2022/05/26 00:47:13;;;;;;;2.05;0.90;;;;;;;21.01;50.43;101575.50;5082323;28;20086;-60
2022/05/26 00:50:02;;;;;;;1.02;0.60;;;;;;;21.02;50.45;101571.75;5083429;28;20028;-60
2022/05/26 00:52:31;;;;;;;1.55;0.68;;;;;;;21.02;50.25;101576.31;5079034;28;20031;-61
2022/05/26 00:55:19;;;;;;;1.52;0.60;;;;;;;21.02;50.42;101579.88;5061765;28;20071;-60
2022/05/26 00:58:06;;;;;;;0.40;0.32;;;;;;;21.02;50.04;101579.03;5062856;28;20029;-60
2022/05/26 01:00:36;;;;;;;;;;;;;;;20.99;50.20;101573.97;5063131;28;20078;-60
2022/05/26 01:03:29;;;;;;;1.67;0.82;;;;;;;20.98;50.46;101581.22;5062658;28;19908;-61
2022/05/26 01:06:02;;;;;;;1.48;0.90;;;;;;;20.97;50.44;101576.84;5063039;28;20120;-61
2022/05/26 01:08:50;;;;;;;1.20;0.60;;;;;;;20.97;50.14;101577.66;5063546;28;20014;-61
2022/05/26 01:11:15;;;;;;;0.90;0.60;;;;;;;20.96;50.47;101569.75;5062020;28;20017;-61
2022/05/26 01:13:47;;;;;;;1.27;0.70;;;;;;;20.80;50.23;101551.63;5061387;28;20044;-61
2022/05/26 01:16:32;;;;;;;2.22;0.60;;;;;;;20.96;50.09;101578.69;5078085;28;20067;-61
2022/05/26 01:19:23;;;;;;;0.60;0.47;;;;;;;20.96;50.32;101584.09;5077841;28;20029;-61
2022/05/26 01:22:12;;;;;;;0.88;0.65;;;;;;;20.96;50.27;101581.41;5078476;28;20436;-61
2022/05/26 01:25:02;;;;;;;1.05;0.88;;;;;;;20.95;50.22;101590.53;5083624;28;20077;-60
2022/05/26 01:27:33;;;;;;;1.33;0.77;;;;;;;20.95;50.32;101589.69;5085326;28;20076;-61
2022/05/26 01:30:19;;;;;;;2.83;0.85;;;;;;;20.95;50.17;101587.81;5086651;28;20027;-61
2022/05/26 01:33:20;;;;;;;1.77;1.02;;;;;;;20.94;50.42;101596.94;5084730;28;20083;-60
2022/05/26 01:36:24;;;;;;;1.35;0.70;;;;;;;20.94;50.08;101598.78;5085274;28;20035;-60
2022/05/26 01:39:15;;;;;;;1.17;0.70;;;;;;;20.93;50.12;101608.75;5086526;28;20043;-60
2022/05/26 01:42:11;;;;;;;1.30;0.77;;;;;;;20.94;50.27;101609.59;5085087;28;20054;-60
2022/05/26 01:45:12;;;;;;;2.50;0.73;;;;;;;20.93;50.29;101603.34;5085150;28;20036;-60
2022/05/26 01:47:48;;;;;;;1.77;0.82;;;;;;;20.91;49.97;101593.72;5084446;28;20059;-60
2022/05/26 01:50:41;;;;;;;2.47;1.17;;;;;;;20.92;50.24;101598.97;5085149;28;20372;-60
2022/05/26 01:53:27;;;;;;;1.00;0.82;;;;;;;20.91;50.25;101615.34;5085144;28;20109;-61
2022/05/26 01:56:20;;;;;;;2.35;0.77;;;;;;;20.92;49.98;101619.75;5069436;28;20053;-61
2022/05/26 01:58:58;;;;;;;1.42;0.90;;;;;;;20.92;50.09;101611.63;5047937;28;20032;-60
2022/05/26 02:01:27;;;;;;;1.13;0.82;;;;;;;20.90;50.05;101616.38;5064469;28;20499;-61
2022/05/26 02:03:53;;;;;;;2.65;1.20;;;;;;;20.91;50.10;101613.50;5065485;28;20039;-60
2022/05/26 02:06:27;;;;;;;1.85;1.10;;;;;;;20.91;50.35;101607.25;5087490;28;20023;-61
2022/05/26 02:08:56;;;;;;;1.55;0.70;;;;;;;20.90;49.99;101609.09;5095895;28;20042;-59
2022/05/26 02:11:22;;;;;;;1.65;1.00;;;;;;;20.87;50.27;101601.31;5084789;28;20099;-60
2022/05/26 02:14:07;;;;;;;1.48;1.20;;;;;;;20.82;50.10;101594.72;5085579;28;20028;-60
2022/05/26 02:16:43;;;;;;;1.70;0.93;;;;;;;20.90;50.06;101617.22;5084467;28;20024;-60
2022/05/26 02:19:14;;;;;;;1.27;0.80;;;;;;;20.90;49.95;101616.38;5083966;28;20020;-60
2022/05/26 02:21:49;;;;;;;2.38;0.90;;;;;;;20.87;50.16;101628.34;5085781;28;20029;-60
2022/05/26 02:24:33;;;;;;;1.48;0.60;;;;;;;20.90;50.17;101621.78;5074593;28;21055;-60
2022/05/26 02:26:58;;;;;;;2.78;1.17;;;;;;;20.89;50.23;101626.31;5064429;28;20037;-58
2022/05/26 02:32:10;;;;;;;2.45;1.30;;;;;;;20.88;50.24;101630.03;5063619;28;20455;-59
2022/05/26 02:34:37;;;;;;;1.55;1.05;;;;;;;20.88;49.92;101630.03;5064078;28;20040;-59
2022/05/26 02:37:03;;;;;;;1.63;0.82;;;;;;;20.88;49.89;101626.47;5065520;28;20024;-61
2022/05/26 02:39:28;;;;;;;1.70;0.82;;;;;;;20.88;50.14;101635.44;5063934;28;20051;-61
2022/05/26 02:41:54;;;;;;;0.80;0.75;;;;;;;20.87;49.97;101632.91;5065190;28;20050;-60
2022/05/26 02:44:21;;;;;;;1.70;0.80;;;;;;;20.87;50.07;101638.31;5074647;28;20016;-61
2022/05/26 02:46:46;;;;;;;3.17;1.23;;;;;;;20.88;50.04;101642.69;5084473;28;20052;-61
2022/05/26 02:49:28;;;;;;;1.98;1.00;;;;;;;20.86;50.15;101639.34;5084497;28;20043;-61
2022/05/26 02:52:12;;;;;;;5.13;1.00;;;;;;;20.88;49.95;101659.75;5083978;28;20031;-61
2022/05/26 02:55:00;;;;;;;1.10;0.88;;;;;;;20.87;50.04;101655.38;5085119;28;20051;-60
2022/05/26 02:57:35;;;;;;;2.25;1.35;;;;;;;20.86;50.08;101658.25;5083460;28;20041;-61
2022/05/26 03:00:14;;;;;;;2.08;1.25;;;;;;;20.86;49.76;101658.25;5083941;28;20425;-61
2022/05/26 03:03:09;;;;;;;2.72;1.30;;;;;;;20.86;49.77;101655.56;5082763;28;20029;-61
2022/05/26 03:05:47;;;;;;;1.63;0.90;;;;;;;20.85;49.98;101651.97;5083533;28;20020;-61
2022/05/26 03:08:16;;;;;;;1.77;0.90;;;;;;;20.85;49.84;101656.53;5098775;28;20016;-61
2022/05/26 03:10:47;;;;;;;2.72;1.30;;;;;;;20.85;50.09;101656.53;5083746;28;20024;-61
2022/05/26 03:13:12;;;;;;;2.88;1.00;;;;;;;20.80;50.08;101659.72;5083541;28;20029;-60
2022/05/26 03:15:38;;;;;;;3.08;1.50;;;;;;;20.84;49.72;101665.66;5064422;28;20036;-60
2022/05/26 03:18:04;;;;;;;1.35;1.17;;;;;;;20.81;49.94;101669.53;5080632;28;20028;-61
2022/05/26 03:20:29;;;;;;;2.17;1.33;;;;;;;20.80;49.73;101664.28;5084830;28;20047;-61
2022/05/26 03:22:55;;;;;;;2.08;1.20;;;;;;;20.84;49.58;101677.31;5084653;28;20028;-61
2022/05/26 03:25:20;;;;;;;1.98;1.25;;;;;;;20.83;50.03;101669.38;5084431;28;20074;-61
2022/05/26 03:27:45;;;;;;;1.83;1.20;;;;;;;20.82;49.81;101671.25;5084357;28;20107;-61
2022/05/26 03:30:11;;;;;;;2.85;1.30;;;;;;;20.82;49.78;101671.25;5084571;28;20025;-61
2022/05/26 03:32:36;;;;;;;1.73;1.20;;;;;;;20.83;50.09;101680.19;5083604;28;20043;-61
2022/05/26 03:40:46;;;;;;;1.17;0.85;;;;;;;20.81;50.09;101672.22;5084408;28;20047;-61
2022/05/26 03:43:12;;;;;;;1.92;1.45;;;;;;;20.81;50.08;101671.38;5082145;28;20048;-61
2022/05/26 03:45:37;;;;;;;2.35;1.23;;;;;;;20.81;49.90;101674.09;5082524;28;20044;-61
2022/05/26 03:48:04;;;;;;;1.95;1.02;;;;;;;20.81;49.93;101682.19;5082773;28;20045;-61
2022/05/26 03:50:30;;;;;;;2.28;1.10;;;;;;;20.81;49.73;101687.59;5084319;28;20142;-61
2022/05/26 03:52:55;;;;;;;2.08;0.95;;;;;;;20.79;50.00;101682.38;5084097;28;20141;-62
2022/05/26 03:55:21;;;;;;;1.98;1.20;;;;;;;20.80;49.78;101683.22;5083689;28;20105;-61
2022/05/26 03:57:47;;;;;;;2.35;1.20;;;;;;;20.74;49.76;101668.50;5083579;28;20032;-62
2022/05/26 04:00:14;;;;;;;3.05;1.58;;;;;;;20.79;50.05;101682.38;5083986;28;20084;-62
2022/05/26 04:02:40;;;;;;;4.25;1.92;;;;;;;20.68;49.92;101661.03;5082908;28;20111;-56
2022/05/26 04:05:06;;;;;;;3.17;1.50;;;;;;;20.79;49.58;101682.38;5073973;28;20040;-54
2022/05/26 04:07:31;;;;;;;4.80;1.55;;;;;;;20.80;50.07;101692.16;5075155;28;20058;-56
2022/05/26 04:09:57;;;;;;;3.47;1.45;;;;;;;20.79;49.85;101701.28;5083675;28;20028;-56
2022/05/26 04:12:22;;;;;;;2.80;1.40;;;;;;;20.79;50.11;101704.00;5076203;28;20024;-55
2022/05/26 04:14:47;;;;;;;4.47;1.80;;;;;;;20.79;50.34;101705.84;5082908;28;20031;-57
2022/05/26 04:17:12;;;;;;;3.15;1.50;;;;;;;20.79;50.32;101711.25;5081594;28;20020;-57
2022/05/26 04:19:41;;;;;;;1.85;1.10;;;;;;;20.78;49.86;101714.97;5082968;28;20043;-57
2022/05/26 04:22:15;;;;;;;2.88;1.40;;;;;;;20.77;50.12;101705.16;5083165;28;20931;-55
2022/05/26 04:24:40;;;;;;;2.55;1.20;;;;;;;20.76;50.13;101714.28;5081658;28;20074;-58
2022/05/26 04:27:06;;;;;;;2.58;1.30;;;;;;;20.73;49.90;101704.66;5082798;28;20044;-56
2022/05/26 04:29:32;;;;;;;2.10;1.40;;;;;;;20.79;49.96;101720.19;5083093;28;20027;-57
2022/05/26 04:31:58;;;;;;;2.35;1.60;;;;;;;20.79;50.08;101722.06;5062714;28;20028;-58
2022/05/26 04:34:23;;;;;;;3.10;1.40;;;;;;;20.80;49.86;101721.03;5082691;28;20028;-57
2022/05/26 04:36:48;;;;;;;2.00;1.38;;;;;;;20.79;49.94;101722.91;5082595;28;20465;-58
2022/05/26 04:39:14;;;;;;;2.67;1.48;;;;;;;20.79;49.93;101725.59;5082707;28;21048;-57
2022/05/26 04:41:41;;;;;;;4.50;1.60;;;;;;;20.80;50.30;101742.66;5082845;28;20021;-54
2022/05/26 04:44:07;;;;;;;2.88;1.40;;;;;;;20.79;50.01;101733.72;5082125;28;20020;-55
2022/05/26 04:46:32;;;;;;;4.63;1.95;;;;;;;20.80;50.32;101735.41;5080820;28;20060;-55
2022/05/26 04:48:58;;;;;;;4.95;3.00;;;;;;;20.78;50.20;101736.59;5081725;28;20045;-57
2022/05/26 04:51:23;;;;;;;3.70;1.90;;;;;;;20.81;50.22;101747.91;5082974;28;20052;-58
2022/05/26 04:53:48;;;;;;;2.40;1.60;;;;;;;20.82;50.54;101737.97;5082835;28;20042;-57
2022/05/26 04:56:13;;;;;;;2.83;1.52;;;;;;;20.79;50.13;101741.81;5080978;28;20501;-57
2022/05/26 04:58:39;;;;;;;3.97;1.80;;;;;;;20.81;50.24;101747.06;5063196;28;20025;-57
2022/05/26 05:01:12;;;;;;;3.95;1.52;;;;;;;20.82;50.21;101754.19;5085457;28;20793;-57
2022/05/26 05:03:37;;;;;;;3.25;1.77;;;;;;;20.81;50.13;101752.47;5085587;28;20025;-56
2022/05/26 05:06:02;;;;;;;3.03;1.58;;;;;;;20.77;50.41;101749.22;5083730;28;20040;-56
2022/05/26 05:08:27;;;;;;;2.33;1.55;;;;;;;20.81;50.22;101756.00;5087025;28;20028;-57
2022/05/26 05:10:53;;;;;;;2.72;1.30;;;;;;;20.81;50.48;101763.28;5089826;28;20025;-55
2022/05/26 05:13:18;;;;;;;5.60;1.85;;;;;;;20.82;50.56;101763.13;5106787;28;20020;-57
2022/05/26 05:15:46;;;;;;;3.47;2.22;;;;;;;20.83;50.16;101761.28;5105571;28;20023;-55
2022/05/26 05:18:12;;;;;;;4.15;1.77;;;;;;;20.82;50.11;101763.13;5106467;28;20016;-55
2022/05/26 05:20:38;;;;;;;3.15;1.60;;;;;;;20.82;50.02;101765.84;5107280;28;20039;-54
2022/05/26 05:23:05;;;;;;;4.13;1.88;;;;;;;20.83;50.46;101772.94;5099106;28;20054;-50
2022/05/26 05:25:37;;;;;;;2.95;1.48;;;;;;;20.80;50.47;101767.00;5072168;28;20041;-52
2022/05/26 05:28:04;;;;;;;3.90;1.90;;;;;;;20.83;50.43;101772.94;5075276;28;20025;-51
2022/05/26 05:30:36;;;;;;;2.53;1.52;;;;;;;20.84;50.16;101781.88;5080607;28;20055;-51
2022/05/26 05:33:06;;;;;;;3.33;1.73;;;;;;;20.85;50.33;101780.88;5096710;28;20032;-52
2022/05/26 05:35:35;;;;;;;4.75;2.33;;;;;;;20.85;50.62;101784.41;5076073;28;20128;-50
2022/05/26 05:38:00;;;;;;;3.42;1.50;;;;;;;20.86;50.52;101790.69;5076910;28;20059;-51
2022/05/26 05:40:26;;;;;;;4.18;1.73;;;;;;;20.81;50.58;101782.19;5081571;28;20024;-47
2022/05/26 05:42:51;;;;;;;3.83;1.50;;;;;;;20.84;50.48;101781.88;5080523;28;20020;-50
2022/05/26 05:45:16;;;;;;;3.70;1.63;;;;;;;20.87;50.69;101795.94;5082517;28;20025;-54
2022/05/26 05:47:42;;;;;;;3.78;1.88;;;;;;;20.88;50.69;101802.19;5079882;28;20062;-56
2022/05/26 05:50:07;;;;;;;2.55;1.83;;;;;;;20.88;50.63;101802.19;5082706;28;20044;-56
2022/05/26 05:52:33;;;;;;;4.70;1.95;;;;;;;20.87;50.92;101790.53;5066242;28;20029;-56
2022/05/26 05:54:58;;;;;;;3.35;1.83;;;;;;;20.87;50.84;101795.09;5075540;28;20075;-56
2022/05/26 05:57:23;;;;;;;3.78;1.80;;;;;;;20.89;50.74;101801.16;5085040;28;20114;-58
2022/05/26 05:59:48;;;;;;;3.45;1.60;;;;;;;20.90;50.75;101800.19;5085652;28;20093;-56
2022/05/26 06:02:14;;;;;;;3.40;1.90;;;;;;;20.89;50.49;101799.31;5084442;28;20099;-56
2022/05/26 06:04:42;;;;;;;3.75;1.88;;;;;;;20.90;50.78;101806.44;5086003;28;20693;-55
2022/05/26 06:07:19;;;;;;;2.00;1.65;;;;;;;20.90;50.84;101811.84;5085730;28;20033;-54
2022/05/26 06:09:45;;;;;;;5.90;1.98;;;;;;;20.90;50.57;101825.34;5069448;28;20021;-57
2022/05/26 06:12:12;;;;;;;2.50;1.35;;;;;;;20.90;50.51;101824.50;5091864;28;20039;-53
2022/05/26 06:14:38;;;;;;;3.10;1.30;;;;;;;20.90;50.49;101819.94;5106314;28;20020;-55
2022/05/26 06:17:05;;;;;;;3.85;1.90;;;;;;;20.89;50.46;101828.19;5105254;28;20028;-51
2022/05/26 06:19:31;;;;;;;4.57;1.75;;;;;;;20.91;50.46;101828.91;5106168;28;20047;-54
2022/05/26 06:21:56;;;;;;;3.60;1.52;;;;;;;20.82;50.29;101816.34;5103694;28;20488;-55
2022/05/26 06:24:25;;;;;;;3.60;1.95;;;;;;;20.91;50.65;101823.50;5082384;28;20032;-55
2022/05/26 06:26:50;;;;;;;;;;;;;;;20.91;50.18;101831.59;5084756;28;20052;-55
2022/05/26 06:37:28;;;;;;;3.83;1.70;;;;;;;20.88;50.28;101845.44;5085549;28;20043;-55
2022/05/26 06:39:54;;;;;;;5.00;1.75;;;;;;;20.89;50.14;101847.13;5085226;28;20028;-53
2022/05/26 06:42:20;;;;;;;4.78;1.95;;;;;;;20.88;50.58;101858.94;5084943;28;20036;-56
2022/05/26 06:44:45;;;;;;;4.75;2.25;;;;;;;20.88;50.17;101862.50;5085278;28;20736;-56
2022/05/26 06:47:13;;;;;;;5.18;1.80;;;;;;;20.89;50.36;101869.59;5084088;28;20096;-56
2022/05/26 06:49:39;;;;;;;4.80;1.70;;;;;;;20.89;50.31;101868.75;5085350;28;20026;-54
2022/05/26 06:52:05;;;;;;;3.03;1.38;;;;;;;20.89;50.44;101872.28;5082957;28;20142;-54
2022/05/26 06:54:36;;;;;;;3.58;1.67;;;;;;;20.89;50.02;101863.34;5064904;28;20045;-53
2022/05/26 06:57:03;;;;;;;3.85;1.73;;;;;;;20.90;50.04;101875.88;5065005;28;20032;-55
2022/05/26 06:59:28;;;;;;;5.10;2.38;;;;;;;20.90;50.13;101882.13;5064822;28;20036;-55
2022/05/26 07:01:53;;;;;;;5.82;2.05;;;;;;;20.90;49.83;101874.00;5074988;28;20025;-55
2022/05/26 07:04:18;;;;;;;3.92;1.60;;;;;;;20.83;49.98;101872.94;5084458;28;20048;-57
2022/05/26 07:06:48;;;;;;;4.97;1.70;;;;;;;20.83;50.36;101874.81;5084852;28;20111;-56
2022/05/26 07:09:13;;;;;;;3.42;1.75;;;;;;;20.91;50.16;101874.84;5084660;28;20082;-55
2022/05/26 07:11:39;;;;;;;4.10;1.58;;;;;;;20.89;50.17;101877.69;5093347;28;20020;-56
2022/05/26 07:14:04;;;;;;;3.38;1.65;;;;;;;20.90;50.08;101868.59;5104973;28;20028;-57
2022/05/26 07:16:29;;;;;;;4.30;1.38;;;;;;;20.92;50.18;101884.66;5103140;28;20034;-57
2022/05/26 07:18:55;;;;;;;2.85;1.58;;;;;;;20.93;49.93;101886.34;5104124;28;20054;-55
2022/05/26 07:21:21;;;;;;;3.63;1.77;;;;;;;20.93;50.10;101887.19;5102957;28;20035;-57
2022/05/26 07:23:46;;;;;;;3.33;1.98;;;;;;;20.94;49.93;101898.84;5087790;28;20131;-54
2022/05/26 07:26:13;;;;;;;3.58;1.70;;;;;;;20.95;49.91;101895.16;5084469;28;20048;-54
2022/05/26 07:28:41;;;;;;;2.22;1.10;;;;;;;20.95;49.92;101904.13;5084150;28;20032;-54
2022/05/26 07:31:08;;;;;;;3.60;1.30;;;;;;;20.96;50.15;101896.84;5082851;28;20035;-56
2022/05/26 07:33:33;;;;;;;2.35;1.42;;;;;;;20.97;49.72;101899.38;5083859;28;20020;-57
2022/05/26 07:35:59;;;;;;;2.65;1.38;;;;;;;20.96;49.88;101905.81;5084236;28;20055;-56
2022/05/26 07:41:17;;;;;;;4.43;1.58;;;;;;;20.96;50.13;101911.22;5084312;28;20059;-55
2022/05/26 07:43:49;;;;;;;2.78;1.10;;;;;;;20.95;50.15;101909.53;5082453;28;20099;-56
2022/05/26 07:46:15;;;;;;;4.65;1.40;;;;;;;20.96;50.02;101913.91;5078814;28;20028;-56
2022/05/26 07:48:41;;;;;;;1.85;1.25;;;;;;;20.97;49.72;101915.59;5083193;28;20077;-56
2022/05/26 07:51:06;;;;;;;3.60;1.45;;;;;;;20.84;49.75;101887.31;5084129;28;20036;-57
2022/05/26 07:53:31;;;;;;;3.67;1.45;;;;;;;21.01;50.03;101916.16;5083764;28;20054;-55
2022/05/26 07:55:57;;;;;;;2.15;1.30;;;;;;;21.02;49.85;101911.59;5084032;28;20105;-55
2022/05/26 07:58:22;;;;;;;2.80;1.35;;;;;;;21.04;49.78;101925.81;5083354;28;20040;-57
2022/05/26 08:00:48;;;;;;;2.33;1.15;;;;;;;21.02;49.68;101917.84;5083565;28;20062;-56
2022/05/26 08:03:13;;;;;;;3.28;1.55;;;;;;;21.00;49.70;101910.91;5083514;28;20067;-56
2022/05/26 08:05:39;;;;;;;2.25;1.50;;;;;;;21.05;49.66;101927.50;5083734;28;20036;-55
2022/05/26 08:08:05;;;;;;;1.98;1.10;;;;;;;21.05;49.60;101922.94;5081779;28;20032;-56
2022/05/26 08:10:31;;;;;;;2.28;1.20;;;;;;;21.05;49.52;101933.75;5066497;28;20112;-56
2022/05/26 08:12:56;;;;;;;3.42;1.58;;;;;;;21.10;49.67;101930.56;5083878;28;20028;-56
2022/05/26 08:15:22;;;;;;;3.42;1.55;;;;;;;21.08;49.62;101929.91;5083596;28;20031;-56
2022/05/26 08:17:47;;;;;;;2.92;1.30;;;;;;;21.10;49.54;101933.28;5082098;28;20046;-55
2022/05/26 08:20:13;;;;;;;3.55;1.20;;;;;;;21.09;49.33;101929.72;5083513;28;20055;-57
2022/05/26 08:22:38;;;;;;;3.08;1.45;;;;;;;21.11;49.31;101934.97;5083775;28;20135;-54
2022/05/26 08:25:04;;;;;;;2.92;1.45;;;;;;;21.07;49.32;101926.34;5083414;28;20039;-55
2022/05/26 08:27:29;;;;;;;2.95;1.27;;;;;;;21.12;49.48;101933.97;5083357;28;20088;-55
2022/05/26 08:29:56;;;;;;;3.10;1.20;;;;;;;21.12;49.68;101944.81;5083690;28;20047;-56
2022/05/26 08:32:22;;;;;;;3.05;1.33;;;;;;;21.11;49.43;101937.66;5082537;28;20029;-55
2022/05/26 08:34:49;;;;;;;3.13;1.20;;;;;;;21.12;49.63;101937.53;5083635;28;20031;-55
2022/05/26 08:37:17;;;;;;;4.68;1.50;;;;;;;21.12;49.31;101937.53;5083674;28;20094;-56
2022/05/26 08:39:42;;;;;;;2.63;1.30;;;;;;;21.13;49.28;101936.50;5083422;28;20035;-55
2022/05/26 08:42:17;;;;;;;3.28;1.23;;;;;;;21.14;49.66;101934.66;5083154;28;20024;-56
2022/05/26 08:44:43;;;;;;;3.08;1.25;;;;;;;21.15;49.13;101947.16;5082272;28;20027;-56
2022/05/26 08:47:13;;;;;;;3.33;1.23;;;;;;;21.13;49.54;101936.50;5077669;28;20049;-53
2022/05/26 08:49:40;;;;;;;2.63;1.13;;;;;;;21.17;49.60;101947.88;5078747;28;20029;-55
2022/05/26 08:52:13;;;;;;;1.52;1.00;;;;;;;21.18;49.24;101957.69;5083328;28;20040;-56
2022/05/26 08:54:47;;;;;;;2.22;1.00;;;;;;;21.18;49.46;101957.69;5083450;28;20035;-56
2022/05/26 08:57:15;;;;;;;2.00;1.02;;;;;;;21.05;49.44;101938.31;5083074;28;20028;-57
2022/05/26 08:59:46;;;;;;;2.78;1.25;;;;;;;21.15;49.29;101953.44;5083173;28;20021;-55
2022/05/26 09:02:25;;;;;;;2.63;0.90;;;;;;;21.19;49.12;101954.81;5081165;28;20028;-56
2022/05/26 09:04:51;;;;;;;2.58;1.15;;;;;;;21.16;49.07;101943.47;5082132;28;20038;-56
2022/05/26 09:13:02;;;;;;;3.97;1.30;;;;;;;21.16;49.23;101940.78;5081633;28;20035;-56
2022/05/26 09:15:28;;;;;;;3.20;1.00;;;;;;;21.25;49.22;101957.91;5081215;28;20017;-55
2022/05/26 09:17:54;;;;;;;3.15;1.27;;;;;;;21.26;49.44;101962.28;5079297;28;20032;-55
2022/05/26 09:20:29;;;;;;;2.90;1.00;;;;;;;21.26;49.33;101954.19;5082985;28;20495;-56
2022/05/26 09:23:27;;;;;;;2.20;0.93;;;;;;;21.29;48.92;101951.16;5083091;28;20044;-56
2022/05/26 09:26:02;;;;;;;1.77;0.90;;;;;;;21.30;49.00;101958.28;5082248;28;20456;-56
2022/05/26 09:28:37;;;;;;;2.25;0.90;;;;;;;21.31;49.18;101960.81;5082687;28;20064;-55
2022/05/26 09:31:23;;;;;;;2.95;1.23;;;;;;;21.31;49.12;101965.38;5082532;28;20063;-53
2022/05/26 09:34:16;;;;;;;2.55;1.00;;;;;;;21.30;49.08;101964.53;5082474;28;20032;-55
2022/05/26 09:36:46;;;;;;;2.17;0.90;;;;;;;21.19;49.04;101957.50;5082782;28;20051;-53
2022/05/26 09:39:13;;;;;;;3.00;1.08;;;;;;;21.27;49.21;101972.94;5082782;28;20051;-54
2022/05/26 09:41:47;;;;;;;5.80;1.90;;;;;;;21.27;49.13;101972.94;5082660;28;20058;-56
2022/05/26 09:44:29;;;;;;;2.45;0.90;;;;;;;21.21;49.15;101960.91;5098146;28;20036;-56
2022/05/26 09:46:58;;;;;;;1.58;0.95;;;;;;;21.28;49.26;101974.66;5083920;28;20028;-53
2022/05/26 09:49:26;;;;;;;2.15;1.00;;;;;;;21.29;49.23;101973.66;5084427;28;20071;-53
2022/05/26 09:52:03;;;;;;;1.98;1.00;;;;;;;21.28;48.89;101969.25;5084916;28;20039;-52
2022/05/26 09:54:32;;;;;;;1.42;0.80;;;;;;;21.29;49.27;101972.81;5086428;28;20087;-54
2022/05/26 09:56:57;;;;;;;1.60;1.17;;;;;;;21.29;49.08;101968.25;5086181;28;20046;-56
2022/05/26 09:59:26;;;;;;;1.52;1.00;;;;;;;21.31;49.01;101960.81;5068061;28;20040;-52
2022/05/26 10:02:14;;;;;;;2.42;1.00;;;;;;;21.33;48.72;101972.38;5085578;28;20039;-54
2022/05/26 10:05:02;;;;;;;1.27;0.82;;;;;;;21.34;48.92;101992.16;5077997;28;20041;-55
2022/05/26 10:07:56;;;;;;;2.88;1.15;;;;;;;21.32;49.06;101986.03;5065891;28;20560;-55
2022/05/26 10:10:35;;;;;;;2.47;1.05;;;;;;;21.30;49.14;101990.72;5066853;28;20021;-55
2022/05/26 10:13:15;;;;;;;0.88;0.60;;;;;;;21.28;49.14;101979.19;5065467;28;20102;-55
2022/05/26 10:15:46;;;;;;;2.00;0.82;;;;;;;21.27;49.00;101988.34;5065697;28;20062;-55
2022/05/26 10:18:44;;;;;;;1.30;0.90;;;;;;;21.30;49.11;101979.91;5064853;28;20051;-55
2022/05/26 10:21:32;;;;;;;0.77;0.67;;;;;;;21.31;49.18;101987.00;5006634;28;20088;-54
2022/05/26 10:24:14;;;;;;;1.63;0.80;;;;;;;21.31;49.05;101985.16;5023425;28;20255;-55
2022/05/26 10:27:11;;;;;;;2.25;0.80;;;;;;;21.32;49.18;101994.16;5023179;28;20025;-55
2022/05/26 10:30:07;;;;;;;1.40;0.70;;;;;;;21.31;49.14;101995.13;5006942;28;20033;-53
2022/05/26 10:33:00;;;;;;;1.25;0.93;;;;;;;21.31;49.27;101981.59;5022132;28;20041;-55
2022/05/26 10:35:27;;;;;;;2.30;0.93;;;;;;;21.34;49.11;101978.63;5003383;28;20094;-56
2022/05/26 10:38:05;;;;;;;2.30;1.10;;;;;;;21.36;48.97;101982.00;5003364;28;20066;-56
2022/05/26 10:40:31;;;;;;;1.92;0.90;;;;;;;21.37;48.95;101979.16;5003234;28;20569;-57
2022/05/26 10:43:03;;;;;;;2.97;1.02;;;;;;;21.38;48.94;101970.03;5002859;28;20026;-56
2022/05/26 10:45:43;;;;;;;1.60;0.88;;;;;;;21.39;48.74;101969.00;5003222;28;20142;-55
2022/05/26 10:48:16;;;;;;;1.80;0.80;;;;;;;21.41;48.78;101976.97;5002010;28;20061;-57
2022/05/26 10:50:54;;;;;;;1.98;0.70;;;;;;;21.41;49.18;101972.41;4986890;28;20046;-54
2022/05/26 10:53:49;;;;;;;1.38;0.93;;;;;;;21.43;48.80;101972.25;4986734;28;20030;-57
2022/05/26 10:56:28;;;;;;;2.97;0.95;;;;;;;21.44;48.79;101982.06;4995956;28;20080;-56
2022/05/26 10:58:59;;;;;;;1.63;0.75;;;;;;;21.44;48.81;101987.47;5083499;28;20020;-56
2022/05/26 11:01:38;;;;;;;3.05;0.80;;;;;;;21.42;49.01;101984.09;5084517;28;20028;-56
2022/05/26 11:04:43;;;;;;;1.85;0.70;;;;;;;21.41;49.18;101983.25;5083024;28;20027;-57
2022/05/26 11:07:16;;;;;;;1.30;0.82;;;;;;;21.40;48.92;101986.94;5082221;28;20063;-55
2022/05/26 11:09:47;;;;;;;2.38;0.90;;;;;;;21.40;48.75;101983.38;5083543;28;20088;-56
2022/05/26 11:12:20;;;;;;;2.80;0.90;;;;;;;21.38;48.96;101986.25;5085481;28;20028;-56
2022/05/26 11:18:00;;;;;;;1.00;0.63;;;;;;;21.39;48.92;101984.41;5082558;28;20039;-57
2022/05/26 11:20:28;;;;;;;2.15;0.80;;;;;;;21.31;49.17;101976.19;5083307;28;20602;-54
2022/05/26 11:23:02;;;;;;;1.00;0.68;;;;;;;21.37;48.99;101984.56;5083435;28;20016;-56
2022/05/26 11:25:31;;;;;;;1.33;0.70;;;;;;;21.38;49.19;101980.84;5083352;28;20029;-57
2022/05/26 11:28:03;;;;;;;2.58;0.90;;;;;;;21.35;49.11;101980.31;5083814;28;20062;-57
2022/05/26 11:36:22;;;;;;;2.03;0.93;;;;;;;21.44;49.24;101982.91;5065774;28;20032;-57
2022/05/26 11:38:49;;;;;;;1.52;0.70;;;;;;;21.45;48.83;101973.81;5062918;28;20049;-58
2022/05/26 11:41:34;;;;;;;1.55;0.70;;;;;;;21.46;49.23;101972.78;5062974;28;20113;-57
2022/05/26 11:44:05;;;;;;;1.08;0.60;;;;;;;21.48;48.79;101974.47;5063959;28;20033;-57
2022/05/26 11:46:50;;;;;;;0.98;0.60;;;;;;;21.48;49.13;101975.31;5062719;28;20025;-56
2022/05/26 11:49:43;;;;;;;2.17;0.90;;;;;;;21.48;48.84;101967.19;5063544;28;20046;-56
2022/05/26 11:52:23;;;;;;;1.77;0.80;;;;;;;21.48;48.89;101977.19;5063922;28;20036;-57
2022/05/26 11:55:01;;;;;;;0.95;0.70;;;;;;;21.47;49.20;101957.38;5063855;28;20049;-57
2022/05/26 11:57:42;;;;;;;2.88;1.02;;;;;;;21.48;49.27;101967.19;5064001;28;20062;-57
2022/05/26 12:00:23;;;;;;;2.30;0.70;;;;;;;21.50;49.24;101964.34;5082339;28;20028;-55
2022/05/26 12:02:53;;;;;;;1.50;0.85;;;;;;;21.50;49.26;101961.66;5082941;28;20098;-57
2022/05/26 12:05:30;;;;;;;1.38;0.60;;;;;;;21.51;49.16;101961.47;5083876;28;20084;-57
2022/05/26 12:08:00;;;;;;;1.63;0.60;;;;;;;21.51;49.02;101957.94;5083565;28;20059;-56
2022/05/26 12:10:28;;;;;;;1.33;0.85;;;;;;;21.52;49.05;101965.03;5084887;28;20023;-56
2022/05/26 12:13:19;;;;;;;1.50;0.63;;;;;;;21.53;48.96;101962.16;5084164;28;20024;-56
2022/05/26 12:16:05;;;;;;;2.15;1.02;;;;;;;21.50;49.23;101965.19;5083615;28;20024;-55
2022/05/26 12:18:47;;;;;;;2.20;0.82;;;;;;;21.54;49.29;101966.56;5082812;28;20233;-56
2022/05/26 12:21:16;;;;;;;1.70;0.70;;;;;;;21.51;49.14;101958.78;5082517;28;20036;-57